createdAt,value
2018-02-05T00:00:32.818Z,102273.26
2018-02-05T00:03:01.180Z,102270.08
2018-02-05T00:05:29.544Z,102281.27
2018-02-05T00:07:57.900Z,102276.20
2018-02-05T00:10:26.427Z,102280.13
2018-02-05T00:12:54.690Z,102274.28
2018-02-05T00:15:22.996Z,102281.16
2018-02-05T00:17:51.297Z,102281.55
2018-02-05T00:20:19.835Z,102283.19
2018-02-05T00:22:48.374Z,102282.70
2018-02-05T00:25:16.897Z,102286.34
2018-02-05T00:27:45.631Z,102286.73
2018-02-05T00:30:13.998Z,102286.54
2018-02-05T00:32:42.333Z,102285.41
2018-02-05T00:35:10.816Z,102291.83
2018-02-05T00:37:39.246Z,102292.00
2018-02-05T00:40:07.564Z,102301.87
2018-02-05T00:42:35.919Z,102304.76
2018-02-05T00:45:04.259Z,102305.25
2018-02-05T00:47:32.847Z,102306.80
2018-02-05T00:50:01.164Z,102309.61
2018-02-05T00:52:29.507Z,102313.92
2018-02-05T00:54:57.791Z,102313.69
2018-02-05T00:57:26.160Z,102314.17
2018-02-05T00:59:54.495Z,102311.88
2018-02-05T01:02:22.839Z,102311.73
2018-02-05T01:04:51.140Z,102312.13
2018-02-05T01:07:19.503Z,102316.77
2018-02-05T01:09:47.786Z,102325.88
2018-02-05T01:12:17.275Z,102330.45
2018-02-05T01:14:45.736Z,102334.75
2018-02-05T01:17:14.552Z,102326.77
2018-02-05T01:19:42.909Z,102337.05
2018-02-05T01:22:11.424Z,102340.59
2018-02-05T01:24:39.871Z,102338.05
2018-02-05T01:27:08.242Z,102337.61
2018-02-05T01:29:36.550Z,102333.52
2018-02-05T01:32:04.940Z,102328.81
2018-02-05T01:34:33.294Z,102329.66
2018-02-05T01:37:01.614Z,102330.73
2018-02-05T01:39:30.019Z,102331.61
2018-02-05T01:41:58.359Z,102334.52
2018-02-05T01:44:26.687Z,102331.81
2018-02-05T01:46:55.016Z,102332.32
2018-02-05T01:49:23.487Z,102340.73
2018-02-05T01:51:51.841Z,102343.09
2018-02-05T01:54:20.135Z,102341.09
2018-02-05T01:56:48.504Z,102343.46
2018-02-05T01:59:16.838Z,102345.98
2018-02-05T02:01:48.126Z,102354.02
2018-02-05T02:04:16.582Z,102349.81
2018-02-05T02:06:44.919Z,102346.85
2018-02-05T02:09:13.241Z,102347.18
2018-02-05T02:11:41.648Z,102348.95
2018-02-05T02:14:09.966Z,102347.55
2018-02-05T02:16:38.908Z,102345.73
2018-02-05T02:19:07.261Z,102338.94
2018-02-05T02:21:35.775Z,102351.78
2018-02-05T02:24:04.077Z,102350.96
2018-02-05T02:26:32.409Z,102349.58
2018-02-05T02:29:00.740Z,102352.86
2018-02-05T02:31:29.046Z,102358.05
2018-02-05T02:33:57.540Z,102360.72
2018-02-05T02:36:25.830Z,102353.63
2018-02-05T02:38:54.130Z,102354.92
2018-02-05T02:41:22.635Z,102361.41
2018-02-05T02:43:51.591Z,102367.27
2018-02-05T02:46:20.092Z,102371.70
2018-02-05T02:48:48.402Z,102368.87
2018-02-05T02:51:16.723Z,102371.27
2018-02-05T02:53:45.046Z,102367.47
2018-02-05T02:56:13.506Z,102373.52
2018-02-05T02:58:41.890Z,102376.23
2018-02-05T03:01:10.206Z,102381.12
2018-02-05T03:03:38.551Z,102378.87
2018-02-05T03:06:07.021Z,102378.58
2018-02-05T03:08:35.309Z,102389.44
2018-02-05T03:11:03.639Z,102393.40
2018-02-05T03:13:31.987Z,102389.89
2018-02-05T03:16:00.303Z,102391.21
2018-02-05T03:18:28.598Z,102388.42
2018-02-05T03:20:56.900Z,102392.27
2018-02-05T03:23:25.303Z,102393.25
2018-02-05T03:25:53.824Z,102396.70
2018-02-05T03:28:22.285Z,102393.61
2018-02-05T03:30:50.795Z,102407.84
2018-02-05T03:33:19.077Z,102411.75
2018-02-05T03:35:47.713Z,102414.15
2018-02-05T03:38:16.149Z,102416.65
2018-02-05T03:40:45.167Z,102413.07
2018-02-05T03:43:13.510Z,102412.28
2018-02-05T03:45:41.835Z,102423.73
2018-02-05T03:48:10.477Z,102420.59
2018-02-05T03:50:38.806Z,102418.86
2018-02-05T03:53:07.075Z,102424.91
2018-02-05T03:55:35.413Z,102420.31
2018-02-05T03:58:03.712Z,102422.94
2018-02-05T04:00:32.202Z,102424.84
2018-02-05T04:03:00.510Z,102423.08
2018-02-05T04:05:28.823Z,102431.81
2018-02-05T04:07:57.130Z,102427.31
2018-02-05T04:10:25.479Z,102440.64
2018-02-05T04:12:54.334Z,102436.73
2018-02-05T04:15:22.814Z,102437.63
2018-02-05T04:17:51.283Z,102441.16
2018-02-05T04:20:19.593Z,102442.06
2018-02-05T04:22:48.072Z,102444.38
2018-02-05T04:25:16.554Z,102452.66
2018-02-05T04:27:44.858Z,102450.10
2018-02-05T04:30:13.287Z,102448.95
2018-02-05T04:32:41.746Z,102457.00
2018-02-05T04:35:10.078Z,102461.05
2018-02-05T04:37:38.494Z,102455.61
2018-02-05T04:40:06.827Z,102462.31
2018-02-05T04:42:35.258Z,102457.59
2018-02-05T04:45:03.651Z,102461.43
2018-02-05T04:47:32.031Z,102464.51
2018-02-05T04:50:00.295Z,102468.33
2018-02-05T04:52:28.659Z,102471.87
2018-02-05T04:54:57.050Z,102471.43
2018-02-05T04:57:25.422Z,102465.37
2018-02-05T04:59:53.755Z,102467.34
2018-02-05T05:05:17.735Z,102467.78
2018-02-05T05:07:46.092Z,102472.16
2018-02-05T05:10:14.425Z,102478.03
2018-02-05T05:12:42.735Z,102483.20
2018-02-05T05:15:11.082Z,102478.26
2018-02-05T05:17:39.411Z,102481.41
2018-02-05T05:20:07.747Z,102474.34
2018-02-05T05:22:36.063Z,102475.34
2018-02-05T05:25:04.464Z,102471.58
2018-02-05T05:27:32.807Z,102474.02
2018-02-05T05:30:01.107Z,102484.42
2018-02-05T05:32:29.491Z,102488.31
2018-02-05T05:34:57.963Z,102480.87
2018-02-05T05:37:26.289Z,102483.84
2018-02-05T05:39:54.583Z,102490.22
2018-02-05T05:42:22.946Z,102491.73
2018-02-05T05:44:51.321Z,102484.91
2018-02-05T05:47:19.694Z,102484.75
2018-02-05T05:49:48.038Z,102488.26
2018-02-05T05:52:16.604Z,102495.73
2018-02-05T05:54:44.956Z,102499.21
2018-02-05T05:57:13.283Z,102499.89
2018-02-05T05:59:41.583Z,102511.87
2018-02-05T06:02:10.031Z,102500.41
2018-02-05T06:04:38.466Z,102507.12
2018-02-05T06:07:06.778Z,102499.38
2018-02-05T06:09:35.751Z,102502.85
2018-02-05T06:12:06.187Z,102502.69
2018-02-05T06:17:09.191Z,102508.22
2018-02-05T06:19:37.489Z,102517.34
2018-02-05T06:22:06.095Z,102513.58
2018-02-05T06:24:34.378Z,102522.59
2018-02-05T06:27:02.853Z,102520.18
2018-02-05T06:29:31.188Z,102526.30
2018-02-05T06:31:59.547Z,102526.83
2018-02-05T06:34:28.039Z,102531.41
2018-02-05T06:36:56.363Z,102533.97
2018-02-05T06:39:24.699Z,102529.72
2018-02-05T06:41:53.244Z,102540.84
2018-02-05T06:44:21.567Z,102536.64
2018-02-05T06:46:49.907Z,102536.69
2018-02-05T06:49:18.243Z,102540.73
2018-02-05T06:51:57.894Z,102548.50
2018-02-05T06:56:33.779Z,102545.89
2018-02-05T06:59:02.188Z,102555.69
2018-02-05T07:01:30.707Z,102554.92
2018-02-05T07:03:58.995Z,102554.08
2018-02-05T07:06:27.302Z,102554.22
2018-02-05T07:08:55.603Z,102551.80
2018-02-05T07:11:24.020Z,102554.22
2018-02-05T07:13:52.468Z,102561.83
2018-02-05T07:16:20.828Z,102558.73
2018-02-05T07:18:49.112Z,102562.27
2018-02-05T07:21:17.430Z,102562.69
2018-02-05T07:23:45.770Z,102558.64
2018-02-05T07:26:14.283Z,102566.94
2018-02-05T07:28:42.638Z,102568.29
2018-02-05T07:31:10.971Z,102565.59
2018-02-05T07:33:39.298Z,102561.80
2018-02-05T07:36:07.625Z,102563.62
2018-02-05T07:38:35.963Z,102569.23
2018-02-05T07:41:04.342Z,102575.78
2018-02-05T07:43:32.735Z,102576.46
2018-02-05T07:46:01.231Z,102581.24
2018-02-05T07:48:29.692Z,102577.83
2018-02-05T07:50:58.035Z,102578.64
2018-02-05T07:53:26.515Z,102576.52
2018-02-05T07:55:55.402Z,102585.71
2018-02-05T07:58:23.924Z,102579.66
2018-02-05T08:00:52.272Z,102579.83
2018-02-05T08:03:20.636Z,102580.16
2018-02-05T08:05:48.961Z,102588.98
2018-02-05T08:08:23.719Z,102587.92
2018-02-05T08:10:52.181Z,102586.31
2018-02-05T08:13:20.546Z,102588.44
2018-02-05T08:15:49.044Z,102599.19
2018-02-05T08:18:17.336Z,102600.38
2018-02-05T08:20:45.715Z,102596.31
2018-02-05T08:23:14.046Z,102592.56
2018-02-05T08:25:42.409Z,102595.05
2018-02-05T08:28:10.916Z,102594.46
2018-02-05T08:30:39.354Z,102595.89
2018-02-05T08:33:07.672Z,102594.63
2018-02-05T08:35:36.133Z,102602.06
2018-02-05T08:38:05.455Z,102593.38
2018-02-05T08:40:33.791Z,102597.48
2018-02-05T08:43:02.153Z,102600.29
2018-02-05T08:45:30.532Z,102596.42
2018-02-05T08:48:00.035Z,102593.88
2018-02-05T08:50:28.515Z,102592.77
2018-02-05T08:52:56.832Z,102594.23
2018-02-05T08:55:25.214Z,102589.33
2018-02-05T08:57:53.668Z,102594.34
2018-02-05T09:00:22.230Z,102596.81
2018-02-05T09:02:50.643Z,102590.77
2018-02-05T09:05:19.146Z,102583.05
2018-02-05T09:07:47.499Z,102586.03
2018-02-05T09:10:20.911Z,102589.61
2018-02-05T09:12:49.410Z,102591.23
2018-02-05T09:15:17.786Z,102588.91
2018-02-05T09:17:46.158Z,102598.20
2018-02-05T09:20:14.562Z,102592.42
2018-02-05T09:22:42.901Z,102589.23
2018-02-05T09:25:14.267Z,102599.33
2018-02-05T09:27:42.757Z,102604.49
2018-02-05T09:30:11.322Z,102601.12
2018-02-05T09:32:39.776Z,102594.92
2018-02-05T09:35:08.160Z,102591.63
2018-02-05T09:37:37.269Z,102595.28
2018-02-05T09:40:05.598Z,102593.25
2018-02-05T09:42:33.915Z,102597.39
2018-02-05T09:45:02.413Z,102595.83
2018-02-05T09:47:30.735Z,102598.45
2018-02-05T09:49:59.025Z,102597.63
2018-02-05T09:52:27.458Z,102596.48
2018-02-05T09:54:55.925Z,102600.95
2018-02-05T09:57:24.394Z,102603.06
2018-02-05T09:59:52.850Z,102598.36
2018-02-05T10:02:21.180Z,102594.19
2018-02-05T10:04:49.483Z,102592.41
2018-02-05T10:07:18.766Z,102592.57
2018-02-05T10:09:47.091Z,102587.33
2018-02-05T10:12:16.372Z,102585.51
2018-02-05T10:14:44.750Z,102584.97
2018-02-05T10:17:13.928Z,102586.51
2018-02-05T10:19:43.031Z,102583.98
2018-02-05T10:22:11.521Z,102581.89
2018-02-05T10:24:40.125Z,102581.12
2018-02-05T10:27:08.800Z,102577.73
2018-02-05T10:29:37.764Z,102577.42
2018-02-05T10:32:06.212Z,102578.98
2018-02-05T10:34:35.378Z,102572.27
2018-02-05T10:37:04.037Z,102578.16
2018-02-05T10:39:32.370Z,102583.59
2018-02-05T10:42:00.774Z,102581.07
2018-02-05T10:44:29.142Z,102582.64
2018-02-05T10:46:57.508Z,102583.30
2018-02-05T10:49:25.975Z,102581.12
2018-02-05T10:51:55.011Z,102589.41
2018-02-05T10:54:23.801Z,102581.68
2018-02-05T10:56:52.169Z,102576.39
2018-02-05T10:59:23.341Z,102583.88
2018-02-05T11:01:51.866Z,102586.84
2018-02-05T11:04:20.184Z,102581.80
2018-02-05T11:06:48.585Z,102587.72
2018-02-05T11:09:16.863Z,102583.26
2018-02-05T11:11:45.192Z,102589.48
2018-02-05T11:14:13.528Z,102581.30
2018-02-05T11:16:41.843Z,102582.16
2018-02-05T11:19:10.283Z,102573.64
2018-02-05T11:21:38.592Z,102549.05
2018-02-05T11:24:06.934Z,102564.58
2018-02-05T11:26:35.279Z,102566.67
2018-02-05T11:29:03.915Z,102565.56
2018-02-05T11:31:32.234Z,102523.47
2018-02-05T11:34:00.525Z,102539.94
2018-02-05T11:36:28.963Z,102498.53
2018-02-05T11:38:57.848Z,102497.30
2018-02-05T11:41:26.183Z,102500.09
2018-02-05T11:43:54.472Z,102536.23
2018-02-05T11:46:22.780Z,102507.92
2018-02-05T11:48:51.251Z,102533.93
2018-02-05T11:51:19.570Z,102512.95
2018-02-05T11:53:47.920Z,102533.10
2018-02-05T11:56:16.511Z,102504.63
2018-02-05T11:58:45.143Z,102526.05
2018-02-05T12:01:13.472Z,102528.44
2018-02-05T12:03:41.909Z,102491.41
2018-02-05T12:06:10.422Z,102513.02
2018-02-05T12:08:38.720Z,102510.36
2018-02-05T12:11:07.059Z,102516.36
2018-02-05T12:13:35.419Z,102514.38
2018-02-05T12:16:05.413Z,102516.51
2018-02-05T12:18:33.811Z,102517.22
2018-02-05T12:21:02.152Z,102506.08
2018-02-05T12:23:30.459Z,102501.02
2018-02-05T12:26:01.771Z,102501.68
2018-02-05T12:28:30.116Z,102494.95
2018-02-05T12:30:58.470Z,102491.80
2018-02-05T12:33:27.055Z,102498.23
2018-02-05T12:35:55.370Z,102490.08
2018-02-05T12:38:23.715Z,102493.12
2018-02-05T12:40:52.219Z,102482.05
2018-02-05T12:43:20.674Z,102483.48
2018-02-05T12:45:49.247Z,102484.08
2018-02-05T12:48:17.597Z,102484.59
2018-02-05T12:50:45.930Z,102477.27
2018-02-05T12:53:15.163Z,102471.38
2018-02-05T12:55:43.790Z,102472.28
2018-02-05T12:58:12.189Z,102473.08
2018-02-05T13:00:40.835Z,102470.22
2018-02-05T13:03:09.143Z,102466.45
2018-02-05T13:05:37.498Z,102465.14
2018-02-05T13:08:05.831Z,102464.18
2018-02-05T13:10:34.127Z,102467.28
2018-02-05T13:13:02.463Z,102465.57
2018-02-05T13:15:30.988Z,102456.64
2018-02-05T13:17:59.386Z,102457.45
2018-02-05T13:20:27.739Z,102457.81
2018-02-05T13:22:56.034Z,102456.92
2018-02-05T13:25:24.342Z,102463.19
2018-02-05T13:27:52.615Z,102454.47
2018-02-05T13:30:21.081Z,102453.98
2018-02-05T13:32:49.578Z,102451.10
2018-02-05T13:35:17.925Z,102448.76
2018-02-05T13:37:46.452Z,102454.23
2018-02-05T13:40:14.947Z,102447.70
2018-02-05T13:42:43.230Z,102442.86
2018-02-05T13:45:11.562Z,102444.42
2018-02-05T13:47:39.920Z,102436.42
2018-02-05T13:50:12.390Z,102430.75
2018-02-05T13:52:40.951Z,102434.27
2018-02-05T13:55:09.317Z,102427.52
2018-02-05T13:57:37.612Z,102432.71
2018-02-05T14:00:06.128Z,102430.35
2018-02-05T14:02:34.456Z,102427.92
2018-02-05T14:05:02.787Z,102416.17
2018-02-05T14:07:31.451Z,102413.93
2018-02-05T14:09:59.796Z,102412.53
2018-02-05T14:12:28.187Z,102413.61
2018-02-05T14:14:56.452Z,102410.42
2018-02-05T14:17:24.807Z,102412.36
2018-02-05T14:19:53.075Z,102403.04
2018-02-05T14:22:21.412Z,102409.61
2018-02-05T14:24:49.791Z,102402.20
2018-02-05T14:27:18.267Z,102410.34
2018-02-05T14:29:46.538Z,102412.55
2018-02-05T14:32:14.915Z,102407.23
2018-02-05T14:34:43.203Z,102409.89
2018-02-05T14:37:11.531Z,102403.75
2018-02-05T14:39:39.831Z,102401.80
2018-02-05T14:42:08.359Z,102401.48
2018-02-05T14:44:36.935Z,102398.00
2018-02-05T14:47:05.547Z,102398.55
2018-02-05T14:49:33.923Z,102389.41
2018-02-05T14:52:02.219Z,102389.22
2018-02-05T14:54:30.476Z,102389.37
2018-02-05T14:56:58.876Z,102383.98
2018-02-05T14:59:27.147Z,102382.80
2018-02-05T15:01:55.474Z,102387.62
2018-02-05T15:04:23.767Z,102385.59
2018-02-05T15:06:52.094Z,102384.64
2018-02-05T15:09:21.007Z,102387.27
2018-02-05T15:11:49.349Z,102381.88
2018-02-05T15:14:17.655Z,102384.80
2018-02-05T15:16:46.025Z,102386.16
2018-02-05T15:19:14.315Z,102378.70
2018-02-05T15:21:42.759Z,102373.13
2018-02-05T15:24:11.234Z,102372.03
2018-02-05T15:26:39.545Z,102362.23
2018-02-05T15:29:07.965Z,102369.52
2018-02-05T15:31:36.487Z,102362.79
2018-02-05T15:34:04.794Z,102359.99
2018-02-05T15:36:33.134Z,102355.81
2018-02-05T15:39:01.459Z,102359.58
2018-02-05T15:41:30.006Z,102356.02
2018-02-05T15:43:58.296Z,102361.61
2018-02-05T15:46:26.626Z,102362.02
2018-02-05T15:48:54.928Z,102361.52
2018-02-05T15:51:23.251Z,102365.38
2018-02-05T15:53:51.558Z,102361.95
2018-02-05T15:56:19.898Z,102361.49
2018-02-05T15:58:48.178Z,102362.70
2018-02-05T16:01:16.602Z,102362.47
2018-02-05T16:03:44.892Z,102357.11
2018-02-05T16:06:13.223Z,102358.38
2018-02-05T16:08:41.603Z,102351.95
2018-02-05T16:11:09.915Z,102355.39
2018-02-05T16:13:38.205Z,102352.35
2018-02-05T16:16:06.597Z,102348.59
2018-02-05T16:18:34.895Z,102355.41
2018-02-05T16:21:03.210Z,102357.23
2018-02-05T16:23:31.542Z,102354.67
2018-02-05T16:25:59.885Z,102359.77
2018-02-05T16:28:28.187Z,102356.36
2018-02-05T16:30:56.498Z,102363.30
2018-02-05T16:33:24.807Z,102363.56
2018-02-05T16:35:53.211Z,102359.22
2018-02-05T16:38:21.547Z,102362.72
2018-02-05T16:40:49.898Z,102362.55
2018-02-05T16:43:18.311Z,102357.54
2018-02-05T16:45:46.632Z,102360.31
2018-02-05T16:48:14.974Z,102352.95
2018-02-05T16:50:43.602Z,102354.00
2018-02-05T16:53:12.214Z,102355.52
2018-02-05T16:55:40.534Z,102348.66
2018-02-05T16:58:08.979Z,102345.20
2018-02-05T17:00:37.308Z,102344.48
2018-02-05T17:03:05.675Z,102348.87
2018-02-05T17:05:34.033Z,102345.32
2018-02-05T17:08:02.606Z,102350.89
2018-02-05T17:10:31.135Z,102349.98
2018-02-05T17:12:59.767Z,102352.65
2018-02-05T17:15:28.066Z,102353.41
2018-02-05T17:17:56.819Z,102358.11
2018-02-05T17:20:25.263Z,102356.50
2018-02-05T17:22:53.696Z,102357.95
2018-02-05T17:25:22.059Z,102353.19
2018-02-05T17:27:50.551Z,102349.78
2018-02-05T17:30:18.864Z,102356.50
2018-02-05T17:32:47.171Z,102357.17
2018-02-05T17:35:15.483Z,102356.65
2018-02-05T17:37:43.981Z,102363.17
2018-02-05T17:40:12.365Z,102357.11
2018-02-05T17:42:40.659Z,102357.86
2018-02-05T17:45:09.115Z,102357.70
2018-02-05T17:47:37.565Z,102353.57
2018-02-05T17:50:05.941Z,102355.20
2018-02-05T17:52:34.301Z,102360.53
2018-02-05T17:55:02.594Z,102363.17
2018-02-05T17:57:30.931Z,102367.91
2018-02-05T17:59:59.411Z,102365.61
2018-02-05T18:02:27.735Z,102360.59
2018-02-05T18:04:56.054Z,102354.11
2018-02-05T18:07:24.460Z,102351.86
2018-02-05T18:09:52.795Z,102355.20
2018-02-05T18:12:21.132Z,102354.05
2018-02-05T18:14:49.413Z,102352.03
2018-02-05T18:17:17.839Z,102346.51
2018-02-05T18:19:46.132Z,102355.42
2018-02-05T18:22:14.700Z,102356.88
2018-02-05T18:24:43.208Z,102357.05
2018-02-05T18:27:11.499Z,102351.08
2018-02-05T18:29:39.814Z,102358.09
2018-02-05T18:32:08.122Z,102353.01
2018-02-05T18:34:36.462Z,102352.91
2018-02-05T18:37:04.895Z,102353.01
2018-02-05T18:39:33.269Z,102351.72
2018-02-05T18:42:01.631Z,102341.41
2018-02-05T18:44:29.941Z,102339.88
2018-02-05T18:46:58.277Z,102335.41
2018-02-05T18:49:26.597Z,102332.73
2018-02-05T18:51:54.923Z,102340.61
2018-02-05T18:54:23.242Z,102341.80
2018-02-05T18:56:51.619Z,102333.62
2018-02-05T18:59:19.950Z,102332.88
2018-02-05T19:01:57.196Z,102333.74
2018-02-05T19:04:25.560Z,102337.23
2018-02-05T19:06:53.940Z,102338.34
2018-02-05T19:09:22.239Z,102337.06
2018-02-05T19:11:50.942Z,102338.63
2018-02-05T19:14:19.278Z,102331.20
2018-02-05T19:16:47.733Z,102331.47
2018-02-05T19:19:16.134Z,102335.91
2018-02-05T19:21:44.689Z,102330.61
2018-02-05T19:24:12.983Z,102328.83
2018-02-05T19:26:41.331Z,102329.25
2018-02-05T19:29:09.663Z,102322.45
2018-02-05T19:31:37.982Z,102328.87
2018-02-05T19:34:06.467Z,102318.37
2018-02-05T19:36:34.960Z,102319.10
2018-02-05T19:39:03.486Z,102312.73
2018-02-05T19:41:33.813Z,102306.39
2018-02-05T19:44:06.552Z,102308.84
2018-02-05T19:46:35.979Z,102311.38
2018-02-05T19:49:04.267Z,102306.90
2018-02-05T19:51:32.662Z,102309.22
2018-02-05T19:54:01.211Z,102310.54
2018-02-05T19:56:29.620Z,102305.75
2018-02-05T19:58:57.968Z,102297.98
2018-02-05T20:01:26.394Z,102299.47
2018-02-05T20:03:54.930Z,102307.59
2018-02-05T20:06:23.399Z,102300.96
2018-02-05T20:08:52.091Z,102302.19
2018-02-05T20:11:20.432Z,102301.23
2018-02-05T20:13:49.122Z,102300.71
2018-02-05T20:16:17.910Z,102293.86
2018-02-05T20:18:50.448Z,102292.18
2018-02-05T20:21:19.403Z,102290.13
2018-02-05T20:23:49.260Z,102291.64
2018-02-05T20:26:20.138Z,102283.66
2018-02-05T20:28:48.635Z,102281.45
2018-02-05T20:31:17.016Z,102286.33
2018-02-05T20:33:45.443Z,102287.39
2018-02-05T20:36:13.755Z,102281.61
2018-02-05T20:38:42.061Z,102277.44
2018-02-05T20:41:10.375Z,102287.73
2018-02-05T20:43:38.700Z,102282.84
2018-02-05T20:46:07.077Z,102285.31
2018-02-05T20:48:35.606Z,102276.78
2018-02-05T20:51:03.924Z,102278.64
2018-02-05T20:53:32.274Z,102280.07
2018-02-05T20:56:00.601Z,102280.95
2018-02-05T20:58:29.155Z,102276.08
2018-02-05T21:00:57.689Z,102267.95
2018-02-05T21:03:27.309Z,102276.02
2018-02-05T21:05:55.715Z,102271.72
2018-02-05T21:08:24.028Z,102268.72
2018-02-05T21:10:52.510Z,102265.38
2018-02-05T21:13:20.815Z,102267.45
2018-02-05T21:15:49.319Z,102269.91
2018-02-05T21:18:17.890Z,102259.07
2018-02-05T21:20:46.199Z,102261.61
2018-02-05T21:23:14.495Z,102256.23
2018-02-05T21:25:42.854Z,102248.58
2018-02-05T21:28:11.260Z,102249.25
2018-02-05T21:30:39.600Z,102249.67
2018-02-05T21:33:07.990Z,102242.22
2018-02-05T21:35:36.322Z,102242.03
2018-02-05T21:38:04.660Z,102245.14
2018-02-05T21:40:33.048Z,102233.31
2018-02-05T21:43:01.386Z,102237.84
2018-02-05T21:45:29.746Z,102234.80
2018-02-05T21:47:58.188Z,102231.02
2018-02-05T21:50:26.519Z,102233.77
2018-02-05T21:52:54.815Z,102230.80
2018-02-05T21:55:23.127Z,102226.67
2018-02-05T21:57:51.827Z,102226.44
2018-02-05T22:00:20.122Z,102222.65
2018-02-05T22:02:48.550Z,102223.23
2018-02-05T22:05:16.877Z,102220.55
2018-02-05T22:07:45.190Z,102212.50
2018-02-05T22:10:13.506Z,102211.97
2018-02-05T22:12:41.825Z,102206.34
2018-02-05T22:15:10.331Z,102202.69
2018-02-05T22:17:38.783Z,102197.72
2018-02-05T22:20:07.193Z,102191.52
2018-02-05T22:22:35.519Z,102197.03
2018-02-05T22:25:03.858Z,102189.94
2018-02-05T22:27:32.146Z,102184.62
2018-02-05T22:30:00.431Z,102186.05
2018-02-05T22:32:28.830Z,102183.78
2018-02-05T22:34:57.298Z,102183.20
2018-02-05T22:37:25.682Z,102180.59
2018-02-05T22:39:54.127Z,102177.30
2018-02-05T22:42:22.494Z,102176.66
2018-02-05T22:44:50.803Z,102176.53
2018-02-05T22:47:19.322Z,102173.26
2018-02-05T22:49:47.676Z,102167.06
2018-02-05T22:52:16.028Z,102168.77
2018-02-05T22:54:44.342Z,102163.98
2018-02-05T22:57:12.882Z,102156.77
2018-02-05T22:59:41.320Z,102152.18
2018-02-05T23:02:09.766Z,102155.17
2018-02-05T23:04:38.063Z,102147.55
2018-02-05T23:07:06.639Z,102142.19
2018-02-05T23:09:35.048Z,102130.70
2018-02-05T23:12:03.439Z,102135.45
2018-02-05T23:14:31.729Z,102131.61
2018-02-05T23:17:00.133Z,102135.79
2018-02-05T23:19:28.631Z,102132.34
2018-02-05T23:21:57.214Z,102125.37
2018-02-05T23:24:25.510Z,102126.29
2018-02-05T23:26:53.861Z,102123.95
2018-02-05T23:29:22.329Z,102116.56
2018-02-05T23:31:50.730Z,102114.38
2018-02-05T23:34:19.032Z,102114.87
2018-02-05T23:36:48.200Z,102112.55
2018-02-05T23:39:16.547Z,102114.38
2018-02-05T23:41:44.907Z,102113.68
2018-02-05T23:44:13.376Z,102108.09
2018-02-05T23:46:41.758Z,102106.84
2018-02-05T23:49:10.253Z,102109.25
2018-02-05T23:51:38.631Z,102106.83
2018-02-05T23:54:06.914Z,102105.10
2018-02-05T23:56:35.256Z,102106.94
2018-02-05T23:59:03.796Z,102109.75
